Time;durP1;ratioP1;P1;durP2;ratioP2;P2;SDS_P1;SDS_P2;PMS_P1;PMS_P2;Temp;Humidity;BMP_temperature;BMP_pressure;BME280_temperature;BME280_humidity;BME280_pressure;Samples;Min_cycle;Max_cycle;Signal;HPM_P1;HPM_P2
2023/05/05 00:01:24;;;;;;;7.85;4.18;;;;;;;;;;6172336;23;20012;-95
2023/05/05 00:03:50;;;;;;;8.80;4.38;;;;;;;;;;6169494;23;20028;-95
2023/05/05 00:06:16;;;;;;;13.63;4.80;;;;;;;;;;6194901;23;20317;-94
2023/05/05 00:08:43;;;;;;;13.98;5.07;;;;;;;;;;6169119;23;20040;-94
2023/05/05 00:11:09;;;;;;;10.00;4.70;;;;;;;;;;6192142;23;20606;-93
2023/05/05 00:13:35;;;;;;;10.48;4.90;;;;;;;;;;6194346;23;20001;-94
2023/05/05 00:16:01;;;;;;;9.52;4.60;;;;;;;;;;6197160;22;20096;-94
2023/05/05 00:18:29;;;;;;;9.45;4.78;;;;;;;;;;6168381;23;20024;-93
2023/05/05 00:20:56;;;;;;;10.98;5.00;;;;;;;;;;6142392;23;20013;-94
2023/05/05 00:23:22;;;;;;;15.15;4.78;;;;;;;;;;6168199;23;20013;-94
2023/05/05 00:26:00;;;;;;;17.88;5.00;;;;;;;;;;6168854;23;20015;-93
2023/05/05 00:28:26;;;;;;;11.15;5.20;;;;;;;;;;6170073;23;20001;-95
2023/05/05 00:30:52;;;;;;;9.00;4.82;;;;;;;;;;6169330;23;20009;-94
2023/05/05 00:33:18;;;;;;;14.40;5.20;;;;;;;;;;6193382;23;20107;-93
2023/05/05 00:35:46;;;;;;;15.40;5.35;;;;;;;;;;6192159;23;20025;-94
2023/05/05 00:38:17;;;;;;;10.32;4.70;;;;;;;;;;6168804;23;20013;-94
2023/05/05 00:40:43;;;;;;;10.98;5.05;;;;;;;;;;6168810;23;20150;-94
2023/05/05 00:43:09;;;;;;;10.35;5.05;;;;;;;;;;6168788;23;20506;-94
2023/05/05 00:45:46;;;;;;;;;;;;;;;;;;;;;
2023/05/05 00:48:14;;;;;;;9.25;4.82;;;;;;;;;;6171634;23;20036;-95
2023/05/05 00:50:55;;;;;;;12.80;4.68;;;;;;;;;;6167951;23;20035;-94
2023/05/05 00:53:22;;;;;;;10.80;4.90;;;;;;;;;;6168206;23;20013;-94
2023/05/05 00:55:50;;;;;;;11.52;5.40;;;;;;;;;;6167916;23;20616;-94
2023/05/05 00:58:19;;;;;;;14.52;5.25;;;;;;;;;;6193276;23;20016;-94
2023/05/05 01:00:53;;;;;;;10.23;4.80;;;;;;;;;;6168389;23;20267;-94
2023/05/05 01:03:19;;;;;;;14.50;5.07;;;;;;;;;;6193289;23;20159;-93
2023/05/05 01:05:52;;;;;;;13.85;5.05;;;;;;;;;;6192702;23;20076;-94
2023/05/05 01:08:34;;;;;;;10.32;4.53;;;;;;;;;;6192768;23;20872;-94
2023/05/05 01:11:03;;;;;;;11.10;4.85;;;;;;;;;;6193458;23;20001;-94
2023/05/05 01:13:42;;;;;;;13.55;4.88;;;;;;;;;;6193519;23;20084;-94
2023/05/05 01:16:14;;;;;;;8.88;4.47;;;;;;;;;;6196500;22;20020;-95
2023/05/05 01:18:54;;;;;;;13.65;4.93;;;;;;;;;;6192801;23;20013;-94
2023/05/05 01:21:33;;;;;;;10.27;4.57;;;;;;;;;;6193671;23;20012;-94
2023/05/05 01:24:02;;;;;;;12.30;4.90;;;;;;;;;;6193663;23;20253;-94
2023/05/05 01:26:28;;;;;;;12.18;4.88;;;;;;;;;;6193565;23;20019;-95
2023/05/05 01:29:36;;;;;;;12.75;4.95;;;;;;;;;;6192736;23;20336;-95
2023/05/05 01:32:02;;;;;;;;;;;;;;;;;;6021383;23;20015;-94
2023/05/05 01:34:37;;;;;;;12.38;4.65;;;;;;;;;;6044775;23;19906;-94
2023/05/05 01:37:23;;;;;;;16.10;5.10;;;;;;;;;;6114675;23;20004;-95
2023/05/05 01:40:16;;;;;;;12.88;5.50;;;;;;;;;;6168262;23;20035;-94
2023/05/05 01:42:43;;;;;;;13.95;4.88;;;;;;;;;;6162064;23;20013;-94
2023/05/05 01:45:10;;;;;;;12.88;5.10;;;;;;;;;;6193331;23;20009;-94
2023/05/05 01:47:38;;;;;;;14.65;5.20;;;;;;;;;;6191916;23;20005;-93
2023/05/05 01:50:10;;;;;;;8.75;4.85;;;;;;;;;;6193747;23;20005;-94
2023/05/05 01:52:37;;;;;;;11.02;5.43;;;;;;;;;;6192900;23;20024;-94
2023/05/05 01:55:05;;;;;;;11.98;5.00;;;;;;;;;;6167504;23;20017;-94
2023/05/05 01:57:32;;;;;;;11.70;5.43;;;;;;;;;;6193312;23;20005;-95
2023/05/05 01:59:59;;;;;;;11.40;4.57;;;;;;;;;;6193200;23;20257;-95
2023/05/05 02:02:27;;;;;;;11.07;3.75;;;;;;;;;;6193481;23;20037;-95
2023/05/05 02:04:59;;;;;;;17.75;4.90;;;;;;;;;;6192842;23;20341;-92
2023/05/05 02:07:32;;;;;;;12.27;4.55;;;;;;;;;;6192747;23;20088;-92
2023/05/05 02:10:13;;;;;;;14.40;4.97;;;;;;;;;;6193110;23;20009;-93
2023/05/05 02:12:41;;;;;;;13.27;5.55;;;;;;;;;;6195350;23;20088;-93
2023/05/05 02:15:15;;;;;;;15.40;4.85;;;;;;;;;;6205669;22;20036;-93
2023/05/05 02:17:51;;;;;;;11.45;5.40;;;;;;;;;;6194488;23;20068;-93
2023/05/05 02:20:17;;;;;;;;;;;;;;;;;;6196262;23;20044;-93
2023/05/05 02:22:43;;;;;;;9.30;5.53;;;;;;;;;;6169918;23;19995;-93
2023/05/05 02:25:10;;;;;;;13.45;5.03;;;;;;;;;;6170748;23;20012;-93
2023/05/05 02:27:38;;;;;;;15.20;5.80;;;;;;;;;;6195327;23;20005;-94
2023/05/05 02:30:07;;;;;;;13.77;5.45;;;;;;;;;;6195244;23;20025;-93
2023/05/05 02:32:35;;;;;;;13.30;5.10;;;;;;;;;;6166970;23;20009;-94
2023/05/05 02:35:11;;;;;;;10.73;5.68;;;;;;;;;;6195446;23;20039;-93
2023/05/05 02:37:38;;;;;;;10.30;5.47;;;;;;;;;;6194695;23;20028;-94
2023/05/05 02:40:05;;;;;;;9.68;5.38;;;;;;;;;;6195715;23;20442;-94
2023/05/05 02:42:33;;;;;;;13.07;6.07;;;;;;;;;;6195152;23;20009;-94
2023/05/05 02:45:02;;;;;;;17.98;4.95;;;;;;;;;;6196740;23;20079;-94
2023/05/05 02:47:36;;;;;;;10.50;4.90;;;;;;;;;;6191957;23;20032;-92
2023/05/05 02:50:07;;;;;;;8.73;4.43;;;;;;;;;;6194826;23;20447;-94
2023/05/05 02:52:33;;;;;;;13.15;4.50;;;;;;;;;;6196656;23;20363;-93
2023/05/05 02:55:03;;;;;;;8.10;4.55;;;;;;;;;;6195618;23;20009;-93
2023/05/05 02:57:33;;;;;;;17.33;5.43;;;;;;;;;;6196916;23;20009;-95
2023/05/05 03:00:06;;;;;;;17.40;5.32;;;;;;;;;;6195786;23;20470;-94
2023/05/05 03:02:39;;;;;;;7.53;5.13;;;;;;;;;;6194775;23;20005;-94
2023/05/05 03:05:09;;;;;;;10.43;5.45;;;;;;;;;;6198240;23;20016;-93
2023/05/05 03:07:54;;;;;;;12.18;4.60;;;;;;;;;;6203286;23;20009;-94
2023/05/05 03:10:23;;;;;;;19.53;5.20;;;;;;;;;;6202006;23;20053;-93
2023/05/05 03:13:00;;;;;;;16.08;5.20;;;;;;;;;;6202603;23;20024;-93
2023/05/05 03:15:45;;;;;;;17.38;5.45;;;;;;;;;;6205845;22;20017;-93
2023/05/05 03:18:29;;;;;;;16.40;5.90;;;;;;;;;;6201042;23;20009;-91
2023/05/05 03:21:06;;;;;;;8.80;4.97;;;;;;;;;;6199053;23;20005;-92
2023/05/05 03:23:33;;;;;;;11.82;5.43;;;;;;;;;;6176217;23;20033;-93
2023/05/05 03:26:02;;;;;;;10.05;4.38;;;;;;;;;;6198274;23;20001;-94
2023/05/05 03:28:31;;;;;;;8.30;4.72;;;;;;;;;;6196377;23;20068;-93
2023/05/05 03:30:57;;;;;;;8.25;4.60;;;;;;;;;;6173421;23;20006;-93
2023/05/05 03:33:23;;;;;;;10.05;4.90;;;;;;;;;;6163054;23;20009;-93
2023/05/05 03:35:51;;;;;;;9.68;4.78;;;;;;;;;;6190366;23;20008;-94
2023/05/05 03:38:24;;;;;;;13.13;5.65;;;;;;;;;;6165417;23;20009;-92
2023/05/05 03:40:50;;;;;;;12.05;5.75;;;;;;;;;;6166522;23;20033;-94
2023/05/05 03:43:16;;;;;;;13.35;5.35;;;;;;;;;;6190945;23;20008;-93
2023/05/05 03:45:42;;;;;;;16.95;5.05;;;;;;;;;;6170704;23;20012;-94
2023/05/05 03:48:27;;;;;;;15.85;4.90;;;;;;;;;;6196091;23;20336;-93
2023/05/05 03:50:53;;;;;;;17.02;5.40;;;;;;;;;;6195491;23;20378;-93
2023/05/05 03:53:26;;;;;;;14.05;5.03;;;;;;;;;;6169413;23;20017;-93
2023/05/05 03:55:52;;;;;;;11.52;5.25;;;;;;;;;;6195515;23;20009;-93
2023/05/05 03:58:18;;;;;;;14.80;5.28;;;;;;;;;;6170200;23;20009;-94
2023/05/05 04:00:44;;;;;;;8.32;5.00;;;;;;;;;;6169308;23;20013;-93
2023/05/05 04:05:57;;;;;;;;;;;;;;;;;;6158096;23;20013;-93
2023/05/05 04:08:23;;;;;;;10.77;4.95;;;;;;;;;;6169738;23;19993;-94
2023/05/05 04:10:49;;;;;;;15.30;5.40;;;;;;;;;;6168795;23;20016;-94
2023/05/05 04:13:16;;;;;;;8.45;4.97;;;;;;;;;;6168842;23;20039;-93
2023/05/05 04:15:51;;;;;;;11.10;5.10;;;;;;;;;;6173442;22;20032;-94
2023/05/05 04:18:18;;;;;;;18.63;5.53;;;;;;;;;;6194225;23;20005;-94
2023/05/05 04:20:45;;;;;;;10.15;4.72;;;;;;;;;;6193951;23;20013;-93
2023/05/05 04:23:11;;;;;;;8.60;4.68;;;;;;;;;;6170716;23;20021;-94
2023/05/05 04:25:38;;;;;;;11.50;4.63;;;;;;;;;;6170624;23;20020;-94
2023/05/05 04:28:04;;;;;;;12.93;5.40;;;;;;;;;;6193786;23;20032;-94
2023/05/05 04:30:34;;;;;;;8.32;4.75;;;;;;;;;;6169594;23;20028;-94
2023/05/05 04:33:00;;;;;;;7.90;4.88;;;;;;;;;;6195305;23;20024;-95
2023/05/05 04:35:30;;;;;;;16.48;4.68;;;;;;;;;;6195222;23;20032;-94
2023/05/05 04:38:02;;;;;;;14.88;5.70;;;;;;;;;;6169287;23;20009;-94
2023/05/05 04:40:28;;;;;;;9.75;5.65;;;;;;;;;;6193441;23;20498;-93
2023/05/05 04:42:54;;;;;;;9.50;5.13;;;;;;;;;;6191134;23;20081;-94
2023/05/05 04:45:21;;;;;;;19.40;4.97;;;;;;;;;;6166675;23;20059;-93
2023/05/05 04:47:51;;;;;;;11.38;5.18;;;;;;;;;;6189750;23;20001;-93
2023/05/05 04:50:24;;;;;;;12.85;5.88;;;;;;;;;;6189941;23;20008;-94
2023/05/05 04:55:55;;;;;;;13.57;5.35;;;;;;;;;;6127663;23;20198;-93
2023/05/05 04:58:40;;;;;;;16.20;6.05;;;;;;;;;;6127455;23;20006;-93
2023/05/05 05:01:08;;;;;;;25.73;7.10;;;;;;;;;;6127469;23;20013;-93
2023/05/05 05:03:35;;;;;;;14.32;7.35;;;;;;;;;;6101719;23;20076;-93
2023/05/05 05:06:01;;;;;;;17.17;6.25;;;;;;;;;;6128056;23;20005;-92
2023/05/05 05:08:28;;;;;;;13.27;6.03;;;;;;;;;;6186362;23;20009;-93
2023/05/05 05:10:54;;;;;;;11.95;5.65;;;;;;;;;;6162209;23;20017;-93
2023/05/05 05:13:20;;;;;;;22.08;5.97;;;;;;;;;;6162747;23;20036;-94
2023/05/05 05:15:47;;;;;;;14.15;5.28;;;;;;;;;;6165596;22;20021;-93
2023/05/05 05:18:15;;;;;;;14.98;5.95;;;;;;;;;;6163673;23;20024;-92
2023/05/05 05:20:43;;;;;;;11.88;5.78;;;;;;;;;;6189188;23;20013;-91
2023/05/05 05:23:12;;;;;;;15.88;5.78;;;;;;;;;;6188713;23;20024;-92
2023/05/05 05:25:41;;;;;;;13.25;5.65;;;;;;;;;;6166188;23;20024;-91
2023/05/05 05:28:07;;;;;;;20.58;6.20;;;;;;;;;;6189264;23;20005;-91
2023/05/05 05:30:33;;;;;;;15.73;6.13;;;;;;;;;;6165039;23;20036;-91
2023/05/05 05:33:20;;;;;;;17.73;6.45;;;;;;;;;;6139550;23;20005;-91
2023/05/05 05:35:47;;;;;;;20.45;7.22;;;;;;;;;;6169267;23;20040;-91
2023/05/05 05:38:16;;;;;;;13.48;6.07;;;;;;;;;;6163943;23;20068;-90
2023/05/05 05:40:55;;;;;;;15.77;6.90;;;;;;;;;;6190197;23;20344;-91
2023/05/05 05:43:24;;;;;;;12.85;6.90;;;;;;;;;;6165671;23;20020;-92
2023/05/05 05:45:50;;;;;;;16.13;5.32;;;;;;;;;;6165674;23;20081;-91
2023/05/05 05:48:32;;;;;;;16.17;6.18;;;;;;;;;;6168777;23;20387;-92
2023/05/05 05:50:59;;;;;;;21.67;6.88;;;;;;;;;;6170505;23;20091;-92
2023/05/05 05:53:28;;;;;;;11.10;5.82;;;;;;;;;;6169726;23;20108;-92
2023/05/05 05:56:33;;;;;;;10.85;5.68;;;;;;;;;;6171491;23;20025;-92
2023/05/05 05:59:08;;;;;;;11.95;5.78;;;;;;;;;;6097023;23;20058;-92
2023/05/05 06:01:39;;;;;;;15.82;6.22;;;;;;;;;;6146305;23;20435;-91
2023/05/05 06:04:05;;;;;;;13.18;5.68;;;;;;;;;;6196036;23;20005;-92
2023/05/05 06:06:31;;;;;;;12.52;6.47;;;;;;;;;;6170091;23;20347;-92
2023/05/05 06:09:02;;;;;;;13.23;6.03;;;;;;;;;;6194656;23;20116;-93
2023/05/05 06:11:44;;;;;;;19.92;5.35;;;;;;;;;;6167950;23;20005;-93
2023/05/05 06:14:20;;;;;;;11.00;5.30;;;;;;;;;;6174059;23;20020;-91
2023/05/05 06:16:55;;;;;;;;;;;;;;;;;;6219437;22;20013;-92
2023/05/05 06:19:55;;;;;;;9.23;4.97;;;;;;;;;;6169305;23;19915;-92
2023/05/05 06:22:42;;;;;;;10.88;5.60;;;;;;;;;;6192462;23;20337;-93
2023/05/05 06:25:52;;;;;;;10.52;6.18;;;;;;;;;;6178003;23;20028;-91
2023/05/05 06:28:24;;;;;;;11.48;5.65;;;;;;;;;;6191549;23;20012;-92
2023/05/05 06:30:50;;;;;;;15.30;8.07;;;;;;;;;;6168850;23;20073;-93
2023/05/05 06:33:17;;;;;;;13.98;6.47;;;;;;;;;;6168527;23;20062;-92
2023/05/05 06:35:43;;;;;;;9.27;5.75;;;;;;;;;;6169655;23;20009;-92
2023/05/05 06:38:19;;;;;;;;;;;;;;;;;;;;;
2023/05/05 06:40:49;;;;;;;14.55;6.43;;;;;;;;;;6170069;23;20036;-93
2023/05/05 06:46:11;;;;;;;12.73;6.50;;;;;;;;;;6165993;23;20041;-93
2023/05/05 06:48:37;;;;;;;12.70;5.78;;;;;;;;;;6166829;23;20351;-92
2023/05/05 06:51:04;;;;;;;10.43;6.03;;;;;;;;;;6168987;23;20028;-92
2023/05/05 06:53:30;;;;;;;13.00;6.90;;;;;;;;;;6166482;23;20017;-92
2023/05/05 06:55:56;;;;;;;9.95;5.78;;;;;;;;;;6165360;23;20009;-92
2023/05/05 06:58:22;;;;;;;15.52;6.35;;;;;;;;;;6166047;23;20028;-92
2023/05/05 07:00:49;;;;;;;12.57;6.05;;;;;;;;;;6167574;23;20005;-93
2023/05/05 07:03:15;;;;;;;15.98;6.30;;;;;;;;;;6191905;23;20027;-92
2023/05/05 07:05:42;;;;;;;13.40;6.70;;;;;;;;;;6167244;23;20450;-93
2023/05/05 07:08:10;;;;;;;10.68;6.18;;;;;;;;;;6168705;23;20041;-92
2023/05/05 07:10:36;;;;;;;10.70;5.60;;;;;;;;;;6186847;23;20001;-93
2023/05/05 07:13:06;;;;;;;14.75;6.65;;;;;;;;;;6167512;23;20367;-93
2023/05/05 07:15:33;;;;;;;7.88;4.70;;;;;;;;;;6167898;23;20269;-92
2023/05/05 07:18:09;;;;;;;18.42;7.30;;;;;;;;;;6195675;22;20020;-92
2023/05/05 07:20:38;;;;;;;9.68;4.90;;;;;;;;;;6165904;23;20009;-93
2023/05/05 07:23:04;;;;;;;11.38;5.53;;;;;;;;;;6189160;23;20012;-92
2023/05/05 07:25:30;;;;;;;9.10;5.38;;;;;;;;;;6166425;23;20064;-93
2023/05/05 07:28:02;;;;;;;11.32;5.82;;;;;;;;;;6193506;23;20415;-93
2023/05/05 07:30:29;;;;;;;11.10;5.85;;;;;;;;;;6191159;23;20427;-92
2023/05/05 07:32:55;;;;;;;10.32;5.70;;;;;;;;;;6190992;23;20005;-92
2023/05/05 07:35:28;;;;;;;9.75;5.13;;;;;;;;;;6167455;23;20013;-92
2023/05/05 07:37:55;;;;;;;10.95;5.60;;;;;;;;;;6169907;23;20024;-93
2023/05/05 07:40:21;;;;;;;12.85;5.97;;;;;;;;;;6168496;23;20024;-92
2023/05/05 07:42:50;;;;;;;11.25;6.07;;;;;;;;;;6190759;23;20021;-92
2023/05/05 07:45:28;;;;;;;12.25;5.85;;;;;;;;;;6167543;23;20005;-92
2023/05/05 07:47:54;;;;;;;12.18;5.57;;;;;;;;;;6169131;23;20016;-92
2023/05/05 07:50:20;;;;;;;11.95;6.07;;;;;;;;;;6168944;23;20009;-92
2023/05/05 07:52:46;;;;;;;11.82;6.13;;;;;;;;;;6193237;23;20451;-93
2023/05/05 07:57:59;;;;;;;;;;;;;;;;;;6159296;23;20013;-93
2023/05/05 08:00:27;;;;;;;10.30;5.65;;;;;;;;;;6169184;23;19944;-93
2023/05/05 08:02:53;;;;;;;11.27;5.72;;;;;;;;;;6166342;23;20020;-93
2023/05/05 08:05:19;;;;;;;8.80;5.63;;;;;;;;;;6170098;23;20459;-93
2023/05/05 08:07:45;;;;;;;8.02;5.32;;;;;;;;;;6195551;23;20032;-92
2023/05/05 08:10:31;;;;;;;15.10;6.18;;;;;;;;;;6166011;23;20013;-93
2023/05/05 08:12:58;;;;;;;16.35;5.90;;;;;;;;;;6194165;23;20072;-93
2023/05/05 08:15:24;;;;;;;16.35;6.00;;;;;;;;;;6168555;23;20028;-93
2023/05/05 08:18:01;;;;;;;8.27;4.80;;;;;;;;;;6206691;22;20095;-93
2023/05/05 08:20:56;;;;;;;11.98;5.88;;;;;;;;;;6194910;23;20040;-93
2023/05/05 08:23:23;;;;;;;13.23;6.28;;;;;;;;;;6169365;23;20040;-94
2023/05/05 08:25:51;;;;;;;8.85;6.32;;;;;;;;;;6172165;23;20020;-93
2023/05/05 08:28:17;;;;;;;11.82;6.65;;;;;;;;;;6195218;23;20012;-92
2023/05/05 08:30:43;;;;;;;12.82;5.90;;;;;;;;;;6171050;23;20013;-92
2023/05/05 08:33:12;;;;;;;11.95;6.57;;;;;;;;;;6170528;23;20013;-92
2023/05/05 08:35:40;;;;;;;11.45;5.65;;;;;;;;;;6171927;23;20009;-92
2023/05/05 08:38:06;;;;;;;17.90;6.63;;;;;;;;;;6171271;23;20009;-93
2023/05/05 08:40:33;;;;;;;14.23;6.90;;;;;;;;;;6170280;23;20020;-93
2023/05/05 08:43:00;;;;;;;12.40;7.45;;;;;;;;;;6195568;23;20055;-93
2023/05/05 08:45:27;;;;;;;13.55;7.40;;;;;;;;;;6198236;23;20016;-93
2023/05/05 08:48:05;;;;;;;9.48;6.43;;;;;;;;;;6195243;23;20041;-93
2023/05/05 08:50:41;;;;;;;17.98;6.93;;;;;;;;;;6198640;23;19996;-93
2023/05/05 08:53:15;;;;;;;11.10;6.90;;;;;;;;;;6194692;23;20009;-93
2023/05/05 08:58:42;;;;;;;13.43;7.40;;;;;;;;;;6185883;23;20497;-93
2023/05/05 09:08:58;;;;;;;12.00;8.02;;;;;;;;;;6217940;22;20027;-93
2023/05/05 09:11:25;;;;;;;11.18;7.13;;;;;;;;;;6175810;23;20035;-94
2023/05/05 09:17:22;;;;;;;12.60;7.07;;;;;;;;;;6135340;23;20021;-93
2023/05/05 09:20:14;;;;;;;16.13;7.68;;;;;;;;;;6114740;23;20006;-94
2023/05/05 09:22:45;;;;;;;11.15;7.30;;;;;;;;;;6201782;23;20013;-93
2023/05/05 09:25:18;;;;;;;11.13;7.88;;;;;;;;;;6200374;23;20004;-93
2023/05/05 09:27:46;;;;;;;13.73;8.63;;;;;;;;;;6202334;23;19993;-94
2023/05/05 09:30:29;;;;;;;8.93;6.97;;;;;;;;;;6172324;23;20023;-93
2023/05/05 09:32:56;;;;;;;16.80;7.75;;;;;;;;;;6201000;23;20091;-93
2023/05/05 09:35:26;;;;;;;11.65;8.45;;;;;;;;;;6177568;23;20027;-94
2023/05/05 09:41:15;;;;;;;;;;;;;;;;;;;;;
2023/05/05 09:43:54;;;;;;;14.38;8.38;;;;;;;;;;6116035;23;20281;-94
2023/05/05 09:46:25;;;;;;;12.27;7.90;;;;;;;;;;6087725;23;20013;-94
2023/05/05 09:49:11;;;;;;;14.18;7.75;;;;;;;;;;6087168;23;20010;-94
2023/05/05 09:51:37;;;;;;;;;;;;;;;;;;6103550;23;20061;-95
2023/05/05 09:54:24;;;;;;;18.67;9.48;;;;;;;;;;6110546;23;19929;-94
2023/05/05 09:56:57;;;;;;;15.95;8.55;;;;;;;;;;6130754;23;20038;-94
2023/05/05 09:59:25;;;;;;;15.38;9.02;;;;;;;;;;6113545;23;19986;-94
2023/05/05 10:02:06;;;;;;;17.17;8.98;;;;;;;;;;6120947;23;20005;-94
2023/05/05 10:04:33;;;;;;;16.15;9.23;;;;;;;;;;6168337;23;20328;-94
2023/05/05 10:07:00;;;;;;;15.27;9.73;;;;;;;;;;6169649;23;20009;-95
2023/05/05 10:09:32;;;;;;;15.23;9.93;;;;;;;;;;6175962;22;20074;-95
2023/05/05 10:12:00;;;;;;;14.13;9.25;;;;;;;;;;6199120;23;20111;-95
2023/05/05 10:14:31;;;;;;;17.58;10.65;;;;;;;;;;6198290;23;20237;-95
2023/05/05 10:17:03;;;;;;;14.50;9.02;;;;;;;;;;6203707;23;19989;-95
2023/05/05 10:19:34;;;;;;;26.35;10.95;;;;;;;;;;6205489;23;20006;-94
2023/05/05 10:22:19;;;;;;;24.95;11.60;;;;;;;;;;6199235;23;20012;-95
2023/05/05 10:25:04;;;;;;;14.35;9.05;;;;;;;;;;6201404;23;20004;-95
2023/05/05 10:30:34;;;;;;;13.95;9.82;;;;;;;;;;6172772;23;20005;-94
2023/05/05 10:33:09;;;;;;;17.40;10.25;;;;;;;;;;6177573;23;20023;-94
2023/05/05 10:35:37;;;;;;;16.33;10.43;;;;;;;;;;6199213;23;20009;-94
2023/05/05 10:38:15;;;;;;;14.77;10.15;;;;;;;;;;6195257;23;20019;-93
2023/05/05 10:47:02;;;;;;;14.60;9.73;;;;;;;;;;6048812;23;20007;-94
2023/05/05 10:49:28;;;;;;;17.95;10.30;;;;;;;;;;6073848;23;20003;-95
2023/05/05 10:52:09;;;;;;;15.02;10.20;;;;;;;;;;6142976;23;20006;-94
2023/05/05 10:54:57;;;;;;;19.63;11.65;;;;;;;;;;6161943;23;20001;-94
2023/05/05 10:57:31;;;;;;;16.95;11.07;;;;;;;;;;6197147;23;20001;-94
2023/05/05 11:00:00;;;;;;;18.83;11.52;;;;;;;;;;6197167;23;20019;-94
2023/05/05 11:02:37;;;;;;;16.80;11.77;;;;;;;;;;6175428;23;20025;-94
2023/05/05 11:05:16;;;;;;;17.80;11.30;;;;;;;;;;6191030;23;20031;-94
2023/05/05 11:07:49;;;;;;;20.40;11.77;;;;;;;;;;6197505;23;20004;-95
2023/05/05 11:10:45;;;;;;;19.48;11.45;;;;;;;;;;6198183;22;20020;-95
2023/05/05 11:13:25;;;;;;;24.05;12.45;;;;;;;;;;6146148;23;20017;-95
2023/05/05 11:15:56;;;;;;;22.00;13.52;;;;;;;;;;6161675;23;20024;-95
2023/05/05 11:18:34;;;;;;;24.23;14.02;;;;;;;;;;6168769;23;20001;-95
2023/05/05 11:21:00;;;;;;;21.88;12.90;;;;;;;;;;6166605;23;20005;-95
2023/05/05 11:23:27;;;;;;;24.90;14.10;;;;;;;;;;6166761;23;20454;-94
2023/05/05 11:26:07;;;;;;;23.98;12.25;;;;;;;;;;6165267;23;20025;-95
2023/05/05 11:32:06;;;;;;;21.83;10.88;;;;;;;;;;6151586;23;20036;-93
2023/05/05 11:34:32;;;;;;;23.00;11.75;;;;;;;;;;6167776;23;20024;-94
2023/05/05 11:37:05;;;;;;;15.00;11.40;;;;;;;;;;6144738;23;20001;-94
2023/05/05 11:39:53;;;;;;;19.73;11.60;;;;;;;;;;6143108;23;20016;-94
2023/05/05 11:45:20;;;;;;;17.05;10.70;;;;;;;;;;6149642;23;20009;-94
2023/05/05 11:47:50;;;;;;;25.00;12.38;;;;;;;;;;6144663;23;20006;-93
2023/05/05 11:50:21;;;;;;;20.42;12.30;;;;;;;;;;6144629;23;20020;-92
2023/05/05 11:52:48;;;;;;;19.27;12.65;;;;;;;;;;6170690;23;20061;-94
2023/05/05 11:55:20;;;;;;;24.83;11.93;;;;;;;;;;6143919;23;20009;-94
2023/05/05 11:58:18;;;;;;;21.98;13.32;;;;;;;;;;6170443;23;20040;-95
2023/05/05 12:00:56;;;;;;;18.58;12.27;;;;;;;;;;6189648;23;20020;-94
2023/05/05 12:03:55;;;;;;;30.90;12.38;;;;;;;;;;6171024;23;20009;-93
2023/05/05 12:06:30;;;;;;;;;;;;;;;;;;;;;
2023/05/05 12:08:57;;;;;;;21.98;13.98;;;;;;;;;;6197847;23;20029;-95
2023/05/05 12:11:23;;;;;;;20.33;13.90;;;;;;;;;;6145999;23;20494;-94
2023/05/05 12:13:49;;;;;;;28.08;13.85;;;;;;;;;;6147919;23;20017;-96
2023/05/05 12:16:25;;;;;;;22.17;11.10;;;;;;;;;;6146456;23;20094;-95
2023/05/05 12:19:04;;;;;;;16.48;10.48;;;;;;;;;;6145852;23;20036;-94
2023/05/05 12:21:31;;;;;;;19.23;9.65;;;;;;;;;;6170007;23;20465;-96
2023/05/05 12:23:58;;;;;;;22.05;10.43;;;;;;;;;;6193589;23;20008;-95
2023/05/05 12:29:31;;;;;;;22.58;11.27;;;;;;;;;;6104437;23;20021;-95
2023/05/05 12:31:59;;;;;;;20.00;10.65;;;;;;;;;;6057422;23;20019;-95
2023/05/05 12:34:26;;;;;;;17.98;11.25;;;;;;;;;;6053065;23;20034;-95
2023/05/05 12:36:53;;;;;;;16.88;10.73;;;;;;;;;;6053812;23;20066;-94
2023/05/05 12:39:22;;;;;;;17.52;9.82;;;;;;;;;;6077949;23;20006;-95
2023/05/05 12:41:51;;;;;;;17.83;10.25;;;;;;;;;;6131748;23;20009;-94
2023/05/05 12:44:17;;;;;;;17.38;10.18;;;;;;;;;;6140416;23;20032;-94
2023/05/05 12:49:53;;;;;;;20.73;12.73;;;;;;;;;;6067084;23;20021;-94
2023/05/05 12:52:19;;;;;;;23.95;11.73;;;;;;;;;;6167436;23;20455;-94
2023/05/05 12:55:15;;;;;;;23.67;11.88;;;;;;;;;;6142889;23;20024;-93
2023/05/05 12:58:00;;;;;;;21.45;12.60;;;;;;;;;;6165798;23;20013;-93
2023/05/05 13:00:31;;;;;;;21.65;12.35;;;;;;;;;;6190393;23;20036;-94
2023/05/05 13:02:58;;;;;;;25.92;13.65;;;;;;;;;;6141276;23;20087;-92
2023/05/05 13:05:30;;;;;;;18.45;10.98;;;;;;;;;;6165918;23;20017;-94
2023/05/05 13:08:14;;;;;;;17.98;9.80;;;;;;;;;;6138057;23;20004;-93
2023/05/05 13:11:01;;;;;;;20.48;9.65;;;;;;;;;;6188973;23;20261;-93
2023/05/05 13:16:39;;;;;;;13.95;8.73;;;;;;;;;;6199686;23;20098;-93
2023/05/05 13:19:05;;;;;;;22.05;9.85;;;;;;;;;;6166879;23;20024;-94
2023/05/05 13:21:31;;;;;;;16.70;9.75;;;;;;;;;;6165755;23;20446;-94
2023/05/05 13:23:58;;;;;;;13.93;7.90;;;;;;;;;;6166886;23;20482;-92
2023/05/05 13:26:24;;;;;;;15.38;6.13;;;;;;;;;;6190239;23;20005;-95
2023/05/05 13:28:51;;;;;;;11.50;5.70;;;;;;;;;;6190962;23;20012;-94
2023/05/05 13:31:17;;;;;;;22.95;10.80;;;;;;;;;;6190728;23;20143;-94
2023/05/05 13:33:43;;;;;;;25.38;13.82;;;;;;;;;;6168589;23;20447;-94
2023/05/05 13:36:09;;;;;;;16.00;10.18;;;;;;;;;;6194466;23;20008;-94
2023/05/05 13:38:36;;;;;;;22.40;12.30;;;;;;;;;;6170978;23;20021;-95
2023/05/05 13:41:02;;;;;;;16.20;11.15;;;;;;;;;;6169829;23;20252;-94
2023/05/05 13:44:04;;;;;;;21.63;12.10;;;;;;;;;;6194568;23;20025;-93
2023/05/05 13:46:30;;;;;;;25.30;12.35;;;;;;;;;;6165687;23;20447;-94
2023/05/05 13:48:56;;;;;;;24.02;13.25;;;;;;;;;;6167551;23;20019;-92
2023/05/05 13:51:33;;;;;;;30.38;13.57;;;;;;;;;;6194177;23;20020;-92
2023/05/05 13:53:59;;;;;;;26.52;13.23;;;;;;;;;;6167793;23;20024;-92
2023/05/05 13:56:26;;;;;;;12.98;7.65;;;;;;;;;;6192428;23;20107;-92
2023/05/05 13:58:59;;;;;;;11.52;4.00;;;;;;;;;;6167918;23;20019;-91
2023/05/05 14:01:53;;;;;;;8.77;4.78;;;;;;;;;;6167180;23;20562;-91
2023/05/05 14:04:41;;;;;;;10.68;5.05;;;;;;;;;;6178646;23;20005;-92
2023/05/05 14:07:18;;;;;;;10.98;5.88;;;;;;;;;;6193202;23;20242;-91
2023/05/05 14:09:45;;;;;;;15.93;8.88;;;;;;;;;;6165268;23;20004;-91
2023/05/05 14:12:15;;;;;;;19.23;9.00;;;;;;;;;;6192453;23;20019;-91
2023/05/05 14:14:41;;;;;;;25.63;9.85;;;;;;;;;;6158952;23;20020;-91
2023/05/05 14:17:23;;;;;;;18.55;8.50;;;;;;;;;;6186529;23;20035;-91
2023/05/05 14:19:50;;;;;;;18.25;10.32;;;;;;;;;;6185644;23;20016;-91
2023/05/05 14:22:18;;;;;;;14.68;7.93;;;;;;;;;;6162051;23;20466;-90
2023/05/05 14:24:45;;;;;;;17.50;5.47;;;;;;;;;;6184029;23;20025;-91
2023/05/05 14:27:17;;;;;;;20.10;8.18;;;;;;;;;;6187647;23;20005;-91
2023/05/05 14:29:43;;;;;;;14.45;7.45;;;;;;;;;;6186067;23;20012;-90
2023/05/05 14:32:09;;;;;;;16.95;6.10;;;;;;;;;;6186138;23;20012;-91
2023/05/05 14:34:35;;;;;;;10.60;5.28;;;;;;;;;;6135071;23;20418;-91
2023/05/05 14:37:05;;;;;;;11.00;5.32;;;;;;;;;;6136662;23;20024;-91
2023/05/05 14:39:31;;;;;;;8.93;5.35;;;;;;;;;;6184797;23;20005;-91
2023/05/05 14:41:57;;;;;;;12.38;5.50;;;;;;;;;;6136482;23;20510;-91
2023/05/05 14:44:24;;;;;;;13.15;4.70;;;;;;;;;;6135674;23;20336;-91
2023/05/05 14:46:50;;;;;;;15.02;4.18;;;;;;;;;;6136700;23;20096;-91
2023/05/05 14:49:17;;;;;;;13.73;3.13;;;;;;;;;;6135028;23;20012;-90
2023/05/05 14:51:43;;;;;;;17.08;3.47;;;;;;;;;;6134358;23;20016;-91
2023/05/05 14:54:25;;;;;;;10.35;3.40;;;;;;;;;;6136531;23;20016;-90
2023/05/05 14:56:54;;;;;;;14.57;4.80;;;;;;;;;;6185991;23;20012;-90
2023/05/05 14:59:20;;;;;;;12.38;3.83;;;;;;;;;;6185479;23;20008;-90
2023/05/05 15:01:47;;;;;;;9.80;3.78;;;;;;;;;;6184343;23;20012;-90
2023/05/05 15:04:14;;;;;;;8.95;3.10;;;;;;;;;;6184272;23;20297;-89
2023/05/05 15:06:40;;;;;;;10.27;2.80;;;;;;;;;;6133678;23;20215;-89
2023/05/05 15:09:07;;;;;;;10.50;3.17;;;;;;;;;;6134630;23;20382;-88
2023/05/05 15:11:33;;;;;;;8.60;3.22;;;;;;;;;;6133023;23;20016;-91
2023/05/05 15:14:20;;;;;;;12.27;2.80;;;;;;;;;;6137271;22;20009;-89
2023/05/05 15:16:46;;;;;;;9.77;2.75;;;;;;;;;;6176484;23;20428;-90
2023/05/05 15:19:12;;;;;;;9.00;3.53;;;;;;;;;;6162350;23;20017;-89
2023/05/05 15:21:55;;;;;;;10.38;3.03;;;;;;;;;;6161929;23;20016;-89
2023/05/05 15:24:21;;;;;;;15.27;3.42;;;;;;;;;;6163436;23;20052;-89
2023/05/05 15:26:47;;;;;;;14.40;3.25;;;;;;;;;;6186745;23;20028;-89
2023/05/05 15:29:13;;;;;;;13.52;3.35;;;;;;;;;;6163070;23;20032;-89
2023/05/05 15:31:40;;;;;;;9.75;3.38;;;;;;;;;;6162350;23;20016;-89
2023/05/05 15:34:09;;;;;;;12.45;2.97;;;;;;;;;;6161031;23;20548;-88
2023/05/05 15:36:35;;;;;;;13.25;2.78;;;;;;;;;;6161694;23;20068;-89
2023/05/05 15:41:48;;;;;;;6.65;2.90;;;;;;;;;;6169030;23;20009;-88
2023/05/05 15:44:14;;;;;;;9.90;3.45;;;;;;;;;;6158325;23;20372;-87
2023/05/05 15:46:43;;;;;;;8.32;2.72;;;;;;;;;;6160486;23;20514;-88
2023/05/05 15:49:09;;;;;;;8.50;3.10;;;;;;;;;;6160284;23;20115;-88
2023/05/05 15:51:35;;;;;;;6.50;2.83;;;;;;;;;;6159545;23;20337;-88
2023/05/05 15:54:04;;;;;;;14.02;3.35;;;;;;;;;;6186049;23;20308;-88
2023/05/05 15:56:30;;;;;;;9.30;2.92;;;;;;;;;;6160841;23;20047;-88